createdAt,value
2018-12-17T00:00:59.252Z,1.70
2018-12-17T00:03:25.308Z,1.60
2018-12-17T00:05:51.262Z,1.60
2018-12-17T00:08:17.233Z,1.70
2018-12-17T00:10:43.306Z,1.60
2018-12-17T00:13:09.241Z,1.70
2018-12-17T00:15:35.181Z,1.80
2018-12-17T00:18:01.129Z,1.80
2018-12-17T00:20:27.076Z,1.70
2018-12-17T00:22:53.008Z,1.80
2018-12-17T00:25:18.936Z,1.80
2018-12-17T00:27:44.981Z,1.80
2018-12-17T00:30:10.959Z,1.80
2018-12-17T00:32:36.887Z,2.00
2018-12-17T00:35:03.828Z,1.90
2018-12-17T00:37:30.047Z,1.90
2018-12-17T00:39:56.783Z,1.90
2018-12-17T00:42:22.820Z,2.10
2018-12-17T00:44:48.759Z,2.20
2018-12-17T00:47:18.664Z,2.20
2018-12-17T00:49:44.607Z,2.20
2018-12-17T00:52:10.552Z,2.30
2018-12-17T00:54:36.508Z,2.30
2018-12-17T00:57:02.673Z,2.40
2018-12-17T00:59:35.632Z,2.40
2018-12-17T01:02:01.694Z,2.50
2018-12-17T01:04:27.996Z,2.40
2018-12-17T01:06:54.028Z,2.40
2018-12-17T01:09:21.162Z,2.40
2018-12-17T01:11:47.320Z,2.50
2018-12-17T01:14:13.271Z,2.50
2018-12-17T01:16:39.215Z,2.40
2018-12-17T01:19:05.168Z,2.40
2018-12-17T01:21:31.524Z,2.10
2018-12-17T01:23:57.577Z,2.20
2018-12-17T01:26:23.939Z,2.40
2018-12-17T01:28:50.012Z,2.30
2018-12-17T01:31:16.813Z,2.10
2018-12-17T01:33:42.748Z,2.00
2018-12-17T01:36:08.701Z,2.00
2018-12-17T01:38:34.769Z,2.00
2018-12-17T01:41:00.844Z,2.00
2018-12-17T01:43:26.889Z,2.00
2018-12-17T01:45:52.945Z,1.90
2018-12-17T01:48:18.991Z,2.00
2018-12-17T01:50:45.133Z,2.00
2018-12-17T01:53:11.205Z,1.90
2018-12-17T01:55:37.142Z,2.00
2018-12-17T01:58:03.399Z,2.00
2018-12-17T02:00:29.319Z,2.00
2018-12-17T02:02:55.257Z,2.00
2018-12-17T02:05:21.908Z,2.10
2018-12-17T02:07:47.852Z,2.10
2018-12-17T02:10:13.910Z,2.20
2018-12-17T02:12:39.981Z,2.30
2018-12-17T02:15:06.159Z,2.10
2018-12-17T02:17:32.108Z,2.00
2018-12-17T02:19:58.157Z,2.20
2018-12-17T02:22:24.087Z,2.10
2018-12-17T02:24:50.045Z,2.10
2018-12-17T02:27:15.975Z,2.30
2018-12-17T02:29:41.927Z,2.20
2018-12-17T02:32:08.090Z,2.20
2018-12-17T02:34:34.040Z,2.10
2018-12-17T02:36:59.976Z,2.00
2018-12-17T02:39:25.925Z,2.00
2018-12-17T02:41:51.986Z,2.10
2018-12-17T02:44:18.247Z,2.00
2018-12-17T02:46:44.180Z,2.00
2018-12-17T02:49:10.552Z,2.00
2018-12-17T02:51:37.600Z,2.20
2018-12-17T02:54:04.255Z,2.30
2018-12-17T02:56:30.713Z,2.30
2018-12-17T02:58:56.687Z,2.50
2018-12-17T03:01:22.682Z,2.60
2018-12-17T03:03:48.681Z,2.70
2018-12-17T03:06:14.736Z,2.70
2018-12-17T03:08:40.792Z,2.70
2018-12-17T03:11:06.833Z,2.80
2018-12-17T03:13:32.785Z,2.90
2018-12-17T03:15:58.729Z,2.90
2018-12-17T03:18:24.895Z,2.90
2018-12-17T03:20:51.029Z,3.00
2018-12-17T03:23:16.962Z,2.90
2018-12-17T03:25:42.904Z,2.80
2018-12-17T03:28:08.968Z,2.90
2018-12-17T03:30:35.119Z,2.80
2018-12-17T03:33:01.178Z,2.80
2018-12-17T03:35:27.242Z,2.90
2018-12-17T03:37:53.188Z,3.00
2018-12-17T03:40:19.234Z,3.00
2018-12-17T03:42:45.192Z,3.00
2018-12-17T03:45:11.135Z,3.10
2018-12-17T03:47:37.282Z,3.10
2018-12-17T03:50:04.840Z,3.10
2018-12-17T03:52:30.809Z,3.20
2018-12-17T03:54:56.881Z,3.20
2018-12-17T03:57:22.818Z,3.20
2018-12-17T03:59:48.757Z,3.20
2018-12-17T04:02:14.826Z,3.20
2018-12-17T04:04:41.294Z,3.30
2018-12-17T04:07:07.235Z,3.30
2018-12-17T04:09:33.189Z,3.30
2018-12-17T04:11:59.236Z,3.20
2018-12-17T04:14:25.197Z,3.20
2018-12-17T04:16:51.137Z,3.30
2018-12-17T04:19:17.160Z,3.30
2018-12-17T04:21:43.195Z,3.30
2018-12-17T04:24:16.237Z,3.30
2018-12-17T04:26:42.180Z,3.30
2018-12-17T04:29:08.105Z,3.30
2018-12-17T04:31:34.213Z,3.20
2018-12-17T04:34:00.176Z,3.20
2018-12-17T04:36:26.220Z,3.20
2018-12-17T04:38:52.190Z,3.20
2018-12-17T04:41:18.136Z,3.20
2018-12-17T04:43:44.077Z,3.20
2018-12-17T04:46:10.042Z,3.30
2018-12-17T04:48:43.080Z,3.30
2018-12-17T04:51:09.545Z,3.10
2018-12-17T04:53:35.676Z,3.10
2018-12-17T04:56:01.625Z,3.10
2018-12-17T04:58:27.569Z,3.00
2018-12-17T05:00:53.630Z,2.80
2018-12-17T05:03:19.593Z,2.70
2018-12-17T05:05:45.760Z,2.80
2018-12-17T05:08:11.841Z,2.80
2018-12-17T05:10:37.809Z,2.70
2018-12-17T05:13:03.852Z,2.80
2018-12-17T05:15:29.831Z,2.60
2018-12-17T05:17:55.775Z,2.50
2018-12-17T05:20:21.733Z,2.60
2018-12-17T05:22:47.674Z,2.50
2018-12-17T05:25:13.850Z,2.50
2018-12-17T05:27:39.794Z,2.50
2018-12-17T05:30:06.844Z,2.50
2018-12-17T05:32:32.780Z,2.60
2018-12-17T05:34:58.830Z,2.50
2018-12-17T05:37:24.804Z,2.60
2018-12-17T05:39:50.824Z,2.60
2018-12-17T05:42:16.773Z,2.70
2018-12-17T05:44:42.819Z,2.80
2018-12-17T05:47:09.022Z,2.80
2018-12-17T05:49:34.969Z,2.80
2018-12-17T05:52:00.908Z,3.00
2018-12-17T05:54:26.871Z,3.00
2018-12-17T05:56:52.797Z,3.10
2018-12-17T05:59:18.753Z,3.20
2018-12-17T06:01:44.908Z,3.20
2018-12-17T06:04:10.850Z,3.20
2018-12-17T06:06:36.889Z,3.00
2018-12-17T06:09:05.481Z,2.90
2018-12-17T06:11:31.729Z,2.90
2018-12-17T06:13:57.889Z,2.80
2018-12-17T06:16:30.897Z,2.80
2018-12-17T06:18:56.832Z,2.80
2018-12-17T06:21:22.912Z,2.70
2018-12-17T06:23:48.965Z,2.80
2018-12-17T06:26:14.948Z,2.80
2018-12-17T06:28:40.871Z,2.90
2018-12-17T06:31:06.949Z,2.80
2018-12-17T06:33:32.905Z,2.80
2018-12-17T06:35:58.856Z,2.80
2018-12-17T06:38:24.829Z,2.80
2018-12-17T06:40:50.921Z,3.00
2018-12-17T06:43:16.887Z,3.20
2018-12-17T06:45:42.937Z,3.00
2018-12-17T06:48:08.996Z,3.20
2018-12-17T06:50:35.045Z,3.20
2018-12-17T06:53:01.112Z,3.10
2018-12-17T06:55:27.077Z,3.20
2018-12-17T06:57:53.429Z,3.20
2018-12-17T07:00:19.879Z,3.00
2018-12-17T07:02:45.818Z,2.80
2018-12-17T07:05:11.766Z,2.80
2018-12-17T07:07:37.714Z,2.70
2018-12-17T07:10:03.956Z,2.60
2018-12-17T07:12:30.015Z,2.60
2018-12-17T07:14:55.969Z,2.60
2018-12-17T07:17:21.899Z,2.60
2018-12-17T07:19:47.895Z,2.60
2018-12-17T07:22:13.830Z,2.60
2018-12-17T07:24:40.020Z,2.60
2018-12-17T07:27:05.986Z,2.80
2018-12-17T07:29:32.057Z,3.00
2018-12-17T07:31:58.029Z,3.10
2018-12-17T07:34:24.490Z,3.40
2018-12-17T07:36:50.526Z,3.30
2018-12-17T07:39:16.718Z,3.20
2018-12-17T07:41:42.700Z,3.30
2018-12-17T07:44:08.832Z,3.20
2018-12-17T07:46:34.880Z,3.30
2018-12-17T07:49:00.823Z,3.30
2018-12-17T07:51:26.867Z,3.30
2018-12-17T07:53:52.844Z,3.30
2018-12-17T07:56:18.980Z,3.60
2018-12-17T07:58:44.936Z,4.10
2018-12-17T08:01:10.889Z,4.40
2018-12-17T08:03:36.842Z,4.30
2018-12-17T08:06:03.355Z,4.10
2018-12-17T08:08:35.156Z,4.10
2018-12-17T08:10:57.353Z,4.10
2018-12-17T08:13:23.528Z,3.90
2018-12-17T08:15:49.690Z,3.80
2018-12-17T08:18:20.062Z,3.60
2018-12-17T08:20:46.612Z,3.30
2018-12-17T08:23:12.669Z,3.20
2018-12-17T08:25:38.605Z,3.10
2018-12-17T08:28:04.547Z,3.10
2018-12-17T08:30:30.589Z,3.20
2018-12-17T08:32:56.548Z,3.30
2018-12-17T08:35:22.691Z,3.40
2018-12-17T08:37:48.625Z,3.50
2018-12-17T08:40:14.680Z,3.60
2018-12-17T08:42:40.628Z,3.70
2018-12-17T08:45:06.777Z,3.80
2018-12-17T08:47:32.725Z,3.90
2018-12-17T08:50:05.629Z,3.90
2018-12-17T08:52:31.577Z,4.00
2018-12-17T08:54:57.750Z,4.00
2018-12-17T08:57:23.728Z,4.10
2018-12-17T08:59:49.657Z,4.10
2018-12-17T09:02:15.722Z,4.10
2018-12-17T09:04:41.766Z,4.10
2018-12-17T09:07:07.924Z,4.00
2018-12-17T09:09:33.936Z,4.10
2018-12-17T09:11:59.889Z,4.00
2018-12-17T09:14:25.833Z,4.10
2018-12-17T09:16:51.787Z,4.20
2018-12-17T09:19:17.737Z,4.30
2018-12-17T09:21:43.691Z,4.20
2018-12-17T09:24:09.731Z,4.30
2018-12-17T09:26:35.788Z,4.00
2018-12-17T09:29:01.737Z,3.60
2018-12-17T09:31:27.789Z,3.70
2018-12-17T09:33:53.996Z,3.90
2018-12-17T09:36:19.953Z,4.00
2018-12-17T09:38:45.906Z,4.00
2018-12-17T09:41:12.101Z,4.00
2018-12-17T09:43:38.047Z,4.10
2018-12-17T09:46:04.189Z,3.80
2018-12-17T09:48:30.149Z,3.70
2018-12-17T09:50:56.592Z,3.70
2018-12-17T09:53:22.533Z,3.60
2018-12-17T09:55:48.719Z,3.60
2018-12-17T09:58:14.797Z,3.70
2018-12-17T10:00:40.882Z,3.70
2018-12-17T10:03:07.187Z,3.60
2018-12-17T10:05:33.238Z,3.70
2018-12-17T10:07:59.283Z,3.70
2018-12-17T10:10:25.226Z,3.70
2018-12-17T10:12:51.193Z,3.50
2018-12-17T10:15:17.136Z,3.50
2018-12-17T10:17:43.108Z,3.60
2018-12-17T10:20:09.152Z,3.60
2018-12-17T10:22:35.283Z,3.70
2018-12-17T10:25:01.242Z,3.80
2018-12-17T10:27:27.263Z,3.90
2018-12-17T10:29:53.309Z,3.80
2018-12-17T10:32:19.353Z,3.70
2018-12-17T10:34:45.649Z,3.90
2018-12-17T10:37:11.693Z,3.80
2018-12-17T10:39:37.738Z,3.60
2018-12-17T10:42:03.803Z,3.70
2018-12-17T10:44:29.740Z,3.70
2018-12-17T10:46:55.720Z,3.70
2018-12-17T10:49:21.668Z,3.80
2018-12-17T10:51:47.781Z,3.80
2018-12-17T10:54:13.837Z,3.70
2018-12-17T10:56:39.797Z,3.90
2018-12-17T10:59:05.756Z,4.00
2018-12-17T11:01:37.875Z,4.00
2018-12-17T11:04:05.840Z,4.20
2018-12-17T11:06:31.883Z,4.30
2018-12-17T11:08:57.940Z,4.40
2018-12-17T11:11:23.909Z,4.40
2018-12-17T11:13:49.876Z,4.50
2018-12-17T11:16:15.830Z,4.60
2018-12-17T11:18:41.893Z,4.70
2018-12-17T11:21:07.988Z,4.60
2018-12-17T11:23:34.036Z,4.50
2018-12-17T11:26:00.075Z,4.60
2018-12-17T11:28:26.022Z,4.60
2018-12-17T11:30:52.019Z,4.80
2018-12-17T11:33:17.958Z,5.10
2018-12-17T11:35:44.025Z,5.10
2018-12-17T11:38:10.067Z,5.10
2018-12-17T11:40:36.141Z,5.10
2018-12-17T11:43:02.297Z,5.20
2018-12-17T11:45:28.567Z,5.30
2018-12-17T11:47:54.526Z,5.20
2018-12-17T11:50:20.580Z,5.20
2018-12-17T11:52:46.506Z,5.20
2018-12-17T11:55:12.457Z,5.20
2018-12-17T11:57:48.393Z,5.20
2018-12-17T12:00:14.733Z,5.20
2018-12-17T12:02:40.715Z,5.60
2018-12-17T12:05:06.789Z,5.60
2018-12-17T12:07:32.863Z,5.70
2018-12-17T12:09:58.801Z,5.90
2018-12-17T12:12:24.749Z,5.90
2018-12-17T12:14:50.695Z,5.80
2018-12-17T12:17:16.649Z,5.90
2018-12-17T12:19:42.590Z,6.00
2018-12-17T12:22:08.528Z,5.80
2018-12-17T12:24:34.478Z,5.90
2018-12-17T12:27:00.439Z,5.90
2018-12-17T12:29:26.424Z,5.90
2018-12-17T12:31:52.390Z,5.80
2018-12-17T12:34:18.346Z,5.80
2018-12-17T12:36:44.286Z,5.80
2018-12-17T12:39:10.336Z,5.90
2018-12-17T12:41:36.283Z,6.00
2018-12-17T12:44:08.661Z,5.70
2018-12-17T12:46:30.502Z,5.80
2018-12-17T12:48:56.560Z,5.80
2018-12-17T12:51:22.498Z,5.70
2018-12-17T12:53:48.463Z,5.80
2018-12-17T12:56:14.424Z,5.60
2018-12-17T12:58:40.409Z,5.60
2018-12-17T13:01:07.771Z,5.70
2018-12-17T13:03:33.897Z,5.60
2018-12-17T13:05:59.863Z,5.50
2018-12-17T13:08:26.037Z,5.50
2018-12-17T13:10:52.091Z,5.60
2018-12-17T13:13:18.183Z,5.70
2018-12-17T13:15:44.150Z,5.60
2018-12-17T13:18:10.130Z,5.60
2018-12-17T13:20:36.080Z,5.70
2018-12-17T13:23:02.178Z,5.70
2018-12-17T13:25:29.346Z,5.70
2018-12-17T13:27:55.413Z,5.50
2018-12-17T13:30:21.382Z,5.60
2018-12-17T13:32:47.346Z,5.60
2018-12-17T13:35:13.305Z,5.50
2018-12-17T13:37:39.250Z,5.50
2018-12-17T13:40:07.031Z,5.50
2018-12-17T13:42:32.977Z,5.50
2018-12-17T13:44:59.431Z,5.30
2018-12-17T13:47:25.363Z,5.40
2018-12-17T13:49:51.333Z,5.30
2018-12-17T13:52:23.483Z,5.30
2018-12-17T13:54:49.572Z,5.30
2018-12-17T13:57:15.527Z,5.30
2018-12-17T13:59:41.473Z,5.30
2018-12-17T14:02:09.424Z,5.30
2018-12-17T14:04:35.571Z,5.30
2018-12-17T14:07:01.617Z,5.20
2018-12-17T14:09:27.582Z,5.20
2018-12-17T14:11:53.518Z,5.20
2018-12-17T14:14:19.577Z,5.20
2018-12-17T14:16:58.491Z,5.20
2018-12-17T14:19:24.681Z,5.10
2018-12-17T14:21:56.877Z,5.20
2018-12-17T14:24:22.818Z,5.20
2018-12-17T14:26:49.093Z,5.30
2018-12-17T14:29:15.038Z,5.30
2018-12-17T14:31:41.100Z,5.40
2018-12-17T14:34:07.177Z,5.50
2018-12-17T14:36:33.163Z,5.40
2018-12-17T14:38:59.217Z,5.50
2018-12-17T14:41:25.388Z,5.70
2018-12-17T14:43:53.345Z,5.70
2018-12-17T14:46:19.287Z,5.60
2018-12-17T14:48:45.346Z,5.60
2018-12-17T14:51:11.409Z,5.50
2018-12-17T14:53:37.371Z,5.50
2018-12-17T14:56:03.516Z,5.50
2018-12-17T14:58:29.468Z,5.40
2018-12-17T15:00:55.411Z,5.40
2018-12-17T15:03:21.395Z,5.40
2018-12-17T15:05:47.349Z,5.30
2018-12-17T15:08:13.316Z,5.10
2018-12-17T15:10:39.489Z,4.90
2018-12-17T15:13:05.457Z,5.00
2018-12-17T15:15:31.402Z,4.80
2018-12-17T15:17:57.456Z,4.70
2018-12-17T15:20:23.513Z,4.60
2018-12-17T15:22:49.586Z,4.60
2018-12-17T15:25:15.629Z,4.60
2018-12-17T15:27:41.624Z,4.60
2018-12-17T15:30:07.893Z,4.70
2018-12-17T15:32:33.824Z,4.70
2018-12-17T15:34:59.814Z,4.70
2018-12-17T15:37:25.866Z,4.70
2018-12-17T15:39:52.029Z,4.70
2018-12-17T15:42:17.977Z,4.60
2018-12-17T15:44:43.929Z,4.40
2018-12-17T15:47:09.869Z,4.40
2018-12-17T15:49:35.909Z,4.30
2018-12-17T15:52:01.868Z,4.30
2018-12-17T15:54:27.944Z,4.30
2018-12-17T15:56:53.972Z,4.30
2018-12-17T15:59:20.241Z,4.30
2018-12-17T16:01:50.069Z,4.40
2018-12-17T16:04:14.184Z,4.60
2018-12-17T16:06:40.137Z,4.60
2018-12-17T16:09:06.533Z,4.70
2018-12-17T16:11:32.589Z,4.70
2018-12-17T16:13:58.555Z,4.70
2018-12-17T16:16:24.509Z,4.80
2018-12-17T16:18:50.575Z,4.80
2018-12-17T16:21:16.628Z,4.90
2018-12-17T16:23:49.824Z,5.00
2018-12-17T16:26:15.789Z,5.00
2018-12-17T16:28:41.742Z,5.00
2018-12-17T16:31:07.698Z,5.10
2018-12-17T16:33:33.746Z,5.10
2018-12-17T16:35:59.704Z,5.00
2018-12-17T16:38:25.872Z,5.10
2018-12-17T16:40:52.011Z,5.20
2018-12-17T16:43:17.978Z,5.20
2018-12-17T16:45:44.049Z,5.20
2018-12-17T16:48:10.101Z,5.10
2018-12-17T16:50:36.272Z,4.80
2018-12-17T16:53:02.417Z,4.60
2018-12-17T16:55:28.469Z,4.40
2018-12-17T16:57:54.431Z,4.50
2018-12-17T17:00:20.497Z,4.50
2018-12-17T17:02:46.453Z,4.60
2018-12-17T17:05:12.401Z,4.60
2018-12-17T17:07:38.458Z,4.70
2018-12-17T17:10:07.532Z,4.70
2018-12-17T17:12:33.597Z,4.70
2018-12-17T17:14:59.769Z,4.70
2018-12-17T17:17:25.713Z,4.60
2018-12-17T17:19:51.662Z,4.60
2018-12-17T17:22:17.620Z,4.60
2018-12-17T17:24:43.566Z,4.60
2018-12-17T17:27:12.468Z,4.50
2018-12-17T17:29:38.536Z,4.40
2018-12-17T17:35:06.258Z,4.30
2018-12-17T17:37:32.238Z,4.30
2018-12-17T17:39:58.404Z,4.40
2018-12-17T17:42:24.609Z,4.20
2018-12-17T17:44:50.678Z,4.20
2018-12-17T17:47:16.659Z,4.40
2018-12-17T17:49:42.625Z,4.40
2018-12-17T17:52:08.595Z,4.40
2018-12-17T17:54:34.572Z,4.40
2018-12-17T17:57:00.514Z,4.30
2018-12-17T17:59:26.763Z,4.30
2018-12-17T18:01:52.887Z,4.30
2018-12-17T18:04:18.993Z,4.30
2018-12-17T18:06:45.244Z,4.30
2018-12-17T18:09:11.328Z,4.30
2018-12-17T18:11:37.431Z,4.30
2018-12-17T18:14:03.612Z,4.40
2018-12-17T18:16:29.793Z,4.30
2018-12-17T18:18:55.756Z,4.20
2018-12-17T18:21:21.809Z,4.10
2018-12-17T18:23:47.855Z,4.10
2018-12-17T18:26:13.808Z,3.90
2018-12-17T18:28:39.759Z,3.80
2018-12-17T18:31:05.841Z,3.80
2018-12-17T18:33:31.900Z,3.70
2018-12-17T18:35:57.835Z,3.80
2018-12-17T18:38:23.926Z,3.70
2018-12-17T18:40:49.975Z,3.60
2018-12-17T18:43:16.239Z,3.50
2018-12-17T18:45:42.435Z,3.60
2018-12-17T18:48:08.680Z,3.60
2018-12-17T18:50:34.637Z,3.60
2018-12-17T18:53:00.713Z,3.70
2018-12-17T18:55:26.687Z,3.70
2018-12-17T18:57:52.616Z,3.80
2018-12-17T19:00:18.809Z,3.90
2018-12-17T19:02:45.022Z,4.00
2018-12-17T19:05:10.961Z,4.10
2018-12-17T19:07:36.979Z,4.10
2018-12-17T19:10:04.647Z,4.20
2018-12-17T19:12:30.621Z,4.20
2018-12-17T19:14:56.609Z,4.30
2018-12-17T19:17:22.592Z,4.30
2018-12-17T19:19:48.585Z,4.40
2018-12-17T19:22:14.926Z,4.40
2018-12-17T19:24:40.890Z,4.40
2018-12-17T19:27:06.848Z,4.30
2018-12-17T19:29:32.862Z,4.30
2018-12-17T19:31:58.833Z,4.10
2018-12-17T19:34:25.055Z,3.90
2018-12-17T19:36:51.360Z,4.00
2018-12-17T19:39:17.412Z,4.00
2018-12-17T19:41:43.393Z,4.00
2018-12-17T19:44:09.520Z,4.00
2018-12-17T19:46:35.457Z,4.00
2018-12-17T19:49:01.709Z,4.00
2018-12-17T19:51:27.761Z,4.10
2018-12-17T19:53:53.808Z,4.10
2018-12-17T19:56:19.961Z,4.10
2018-12-17T19:58:46.006Z,4.00
2018-12-17T20:01:12.089Z,4.00
2018-12-17T20:03:38.011Z,3.90
2018-12-17T20:06:04.350Z,4.00
2018-12-17T20:08:30.345Z,4.00
2018-12-17T20:10:56.288Z,4.00
2018-12-17T20:13:22.248Z,4.10
2018-12-17T20:15:48.214Z,4.10
2018-12-17T20:18:14.167Z,4.10
2018-12-17T20:20:40.109Z,4.00
2018-12-17T20:23:06.090Z,4.00
2018-12-17T20:25:32.029Z,4.00
2018-12-17T20:27:57.970Z,4.20
2018-12-17T20:30:23.947Z,4.30
2018-12-17T20:32:53.569Z,4.10
2018-12-17T20:35:17.979Z,4.00
2018-12-17T20:37:43.936Z,4.00
2018-12-17T20:40:10.094Z,3.90
2018-12-17T20:42:36.089Z,3.90
2018-12-17T20:45:03.357Z,4.00
2018-12-17T20:47:29.417Z,4.10
2018-12-17T20:49:55.394Z,4.40
2018-12-17T20:52:21.352Z,4.40
2018-12-17T20:54:47.306Z,4.50
2018-12-17T20:57:13.266Z,4.70
2018-12-17T20:59:39.367Z,4.70
2018-12-17T21:02:05.540Z,4.70
2018-12-17T21:04:31.489Z,4.80
2018-12-17T21:06:57.453Z,4.90
2018-12-17T21:09:23.404Z,4.90
2018-12-17T21:11:49.370Z,5.00
2018-12-17T21:14:15.363Z,4.90
2018-12-17T21:16:41.475Z,4.70
2018-12-17T21:19:07.520Z,4.70
2018-12-17T21:21:33.463Z,4.60
2018-12-17T21:23:59.517Z,4.60
2018-12-17T21:26:25.478Z,4.80
2018-12-17T21:28:51.528Z,4.60
2018-12-17T21:31:17.482Z,4.60
2018-12-17T21:33:43.441Z,4.80
2018-12-17T21:36:09.500Z,4.90
2018-12-17T21:38:35.651Z,4.90
2018-12-17T21:41:01.579Z,4.80
2018-12-17T21:43:27.533Z,4.80
2018-12-17T21:45:53.499Z,4.70
2018-12-17T21:48:19.562Z,4.60
2018-12-17T21:50:45.529Z,4.50
2018-12-17T21:53:11.697Z,4.30
2018-12-17T21:55:37.656Z,4.20
2018-12-17T21:58:03.614Z,4.10
2018-12-17T22:00:29.585Z,4.00
2018-12-17T22:02:55.545Z,4.00
2018-12-17T22:05:21.744Z,4.10
2018-12-17T22:07:47.711Z,4.30
2018-12-17T22:10:15.893Z,4.60
2018-12-17T22:12:41.905Z,4.70
2018-12-17T22:15:08.002Z,4.90
2018-12-17T22:17:33.954Z,4.80
2018-12-17T22:20:00.012Z,4.70
2018-12-17T22:22:26.088Z,4.50
2018-12-17T22:24:52.040Z,4.50
2018-12-17T22:27:17.980Z,4.30
2018-12-17T22:29:43.931Z,4.20
2018-12-17T22:32:09.893Z,4.10
2018-12-17T22:34:35.845Z,4.20
2018-12-17T22:37:02.014Z,4.30
2018-12-17T22:39:28.063Z,4.50
2018-12-17T22:41:54.578Z,4.60
2018-12-17T22:44:20.632Z,4.80
2018-12-17T22:46:46.677Z,4.80
2018-12-17T22:49:12.857Z,4.80
2018-12-17T22:51:38.925Z,4.90
2018-12-17T22:54:05.035Z,4.90
2018-12-17T22:56:31.081Z,5.00
2018-12-17T22:58:57.345Z,5.10
2018-12-17T23:01:23.524Z,5.00
2018-12-17T23:03:49.470Z,5.00
2018-12-17T23:06:15.545Z,5.00
2018-12-17T23:08:49.544Z,4.90
2018-12-17T23:11:28.023Z,4.90
2018-12-17T23:14:06.560Z,4.80
2018-12-17T23:16:44.986Z,4.60
2018-12-17T23:19:10.801Z,4.40
2018-12-17T23:21:36.981Z,4.60
2018-12-17T23:24:09.963Z,4.60
2018-12-17T23:26:36.085Z,4.60
2018-12-17T23:29:02.156Z,4.70
2018-12-17T23:31:28.224Z,4.80
2018-12-17T23:33:54.179Z,4.80
2018-12-17T23:36:20.170Z,4.80
2018-12-17T23:38:46.130Z,4.90
2018-12-17T23:41:12.073Z,4.70
2018-12-17T23:43:38.029Z,4.60
2018-12-17T23:46:04.017Z,4.60
2018-12-17T23:48:30.093Z,4.60
2018-12-17T23:50:56.033Z,4.50
2018-12-17T23:53:22.001Z,4.50
2018-12-17T23:55:48.074Z,4.50
2018-12-17T23:58:14.145Z,4.40
